sensor_id;sensor_type;location;lat;lon;timestamp;P1;durP1;ratioP1;P2;durP2;ratioP2
34098;SDS011;20374;49.474;10.944;2023-02-28T00:02:18;1.50;;;1.35;;
34098;SDS011;20374;49.474;10.944;2023-02-28T00:04:44;1.53;;;1.43;;
34098;SDS011;20374;49.474;10.944;2023-02-28T00:07:10;3.28;;;2.05;;
34098;SDS011;20374;49.474;10.944;2023-02-28T00:09:36;1.75;;;1.65;;
34098;SDS011;20374;49.474;10.944;2023-02-28T00:12:02;1.90;;;1.75;;
34098;SDS011;20374;49.474;10.944;2023-02-28T00:14:35;2.97;;;2.70;;
34098;SDS011;20374;49.474;10.944;2023-02-28T00:17:01;1.70;;;1.60;;
34098;SDS011;20374;49.474;10.944;2023-02-28T00:19:27;2.03;;;1.90;;
34098;SDS011;20374;49.474;10.944;2023-02-28T00:21:53;1.90;;;1.60;;
34098;SDS011;20374;49.474;10.944;2023-02-28T00:24:19;2.28;;;2.08;;
34098;SDS011;20374;49.474;10.944;2023-02-28T00:26:45;2.13;;;1.97;;
34098;SDS011;20374;49.474;10.944;2023-02-28T00:29:11;1.80;;;1.70;;
34098;SDS011;20374;49.474;10.944;2023-02-28T00:31:37;2.20;;;2.00;;
34098;SDS011;20374;49.474;10.944;2023-02-28T00:34:03;1.50;;;1.38;;
34098;SDS011;20374;49.474;10.944;2023-02-28T00:36:30;1.65;;;1.55;;
34098;SDS011;20374;49.474;10.944;2023-02-28T00:38:56;1.73;;;1.63;;
34098;SDS011;20374;49.474;10.944;2023-02-28T00:41:22;1.40;;;1.02;;
34098;SDS011;20374;49.474;10.944;2023-02-28T00:43:48;1.70;;;1.50;;
34098;SDS011;20374;49.474;10.944;2023-02-28T00:46:13;1.80;;;1.70;;
34098;SDS011;20374;49.474;10.944;2023-02-28T00:48:39;2.67;;;2.45;;
34098;SDS011;20374;49.474;10.944;2023-02-28T00:51:05;1.65;;;1.40;;
34098;SDS011;20374;49.474;10.944;2023-02-28T00:53:31;1.67;;;1.58;;
34098;SDS011;20374;49.474;10.944;2023-02-28T00:55:59;1.50;;;1.30;;
34098;SDS011;20374;49.474;10.944;2023-02-28T00:58:26;1.60;;;1.50;;
34098;SDS011;20374;49.474;10.944;2023-02-28T01:00:52;1.90;;;1.80;;
34098;SDS011;20374;49.474;10.944;2023-02-28T01:03:19;4.25;;;2.22;;
34098;SDS011;20374;49.474;10.944;2023-02-28T01:05:45;1.80;;;1.70;;
34098;SDS011;20374;49.474;10.944;2023-02-28T01:08:12;1.50;;;1.35;;
34098;SDS011;20374;49.474;10.944;2023-02-28T01:10:39;1.73;;;1.63;;
34098;SDS011;20374;49.474;10.944;2023-02-28T01:13:06;1.52;;;1.42;;
34098;SDS011;20374;49.474;10.944;2023-02-28T01:15:36;1.80;;;1.70;;
34098;SDS011;20374;49.474;10.944;2023-02-28T01:18:03;2.38;;;2.17;;
34098;SDS011;20374;49.474;10.944;2023-02-28T01:20:30;1.65;;;1.55;;
34098;SDS011;20374;49.474;10.944;2023-02-28T01:22:56;2.30;;;2.10;;
34098;SDS011;20374;49.474;10.944;2023-02-28T01:25:22;1.70;;;1.60;;
34098;SDS011;20374;49.474;10.944;2023-02-28T01:27:48;2.17;;;1.90;;
34098;SDS011;20374;49.474;10.944;2023-02-28T01:30:14;1.55;;;1.40;;
34098;SDS011;20374;49.474;10.944;2023-02-28T01:32:40;1.35;;;1.00;;
34098;SDS011;20374;49.474;10.944;2023-02-28T01:35:06;1.40;;;1.00;;
34098;SDS011;20374;49.474;10.944;2023-02-28T01:37:32;1.42;;;1.13;;
34098;SDS011;20374;49.474;10.944;2023-02-28T01:39:58;1.90;;;1.80;;
34098;SDS011;20374;49.474;10.944;2023-02-28T01:42:24;2.30;;;1.70;;
34098;SDS011;20374;49.474;10.944;2023-02-28T01:44:55;1.80;;;1.55;;
34098;SDS011;20374;49.474;10.944;2023-02-28T01:47:40;2.43;;;1.97;;
34098;SDS011;20374;49.474;10.944;2023-02-28T01:50:09;2.00;;;1.85;;
34098;SDS011;20374;49.474;10.944;2023-02-28T01:52:49;2.25;;;2.05;;
34098;SDS011;20374;49.474;10.944;2023-02-28T01:55:16;1.80;;;1.70;;
34098;SDS011;20374;49.474;10.944;2023-02-28T01:57:49;1.30;;;0.95;;
34098;SDS011;20374;49.474;10.944;2023-02-28T02:00:21;2.30;;;2.10;;
34098;SDS011;20374;49.474;10.944;2023-02-28T02:02:50;1.35;;;1.05;;
34098;SDS011;20374;49.474;10.944;2023-02-28T02:05:20;1.58;;;1.38;;
34098;SDS011;20374;49.474;10.944;2023-02-28T02:07:57;1.65;;;1.55;;
34098;SDS011;20374;49.474;10.944;2023-02-28T02:10:39;1.30;;;0.90;;
34098;SDS011;20374;49.474;10.944;2023-02-28T02:15:41;1.90;;;1.60;;
34098;SDS011;20374;49.474;10.944;2023-02-28T02:40:29;2.57;;;2.37;;
34098;SDS011;20374;49.474;10.944;2023-02-28T02:43:10;1.63;;;1.52;;
34098;SDS011;20374;49.474;10.944;2023-02-28T02:45:45;1.67;;;1.58;;
34098;SDS011;20374;49.474;10.944;2023-02-28T02:48:21;1.45;;;1.17;;
34098;SDS011;20374;49.474;10.944;2023-02-28T02:50:54;1.40;;;1.15;;
34098;SDS011;20374;49.474;10.944;2023-02-28T02:53:24;1.93;;;1.73;;
34098;SDS011;20374;49.474;10.944;2023-02-28T02:56:03;2.35;;;1.40;;
34098;SDS011;20374;49.474;10.944;2023-02-28T02:58:34;2.05;;;1.88;;
34098;SDS011;20374;49.474;10.944;2023-02-28T03:01:10;2.28;;;2.00;;
34098;SDS011;20374;49.474;10.944;2023-02-28T03:03:39;1.55;;;1.45;;
34098;SDS011;20374;49.474;10.944;2023-02-28T03:06:06;3.40;;;2.00;;
34098;SDS011;20374;49.474;10.944;2023-02-28T03:08:36;1.40;;;1.08;;
34098;SDS011;20374;49.474;10.944;2023-02-28T03:11:06;1.67;;;1.58;;
34098;SDS011;20374;49.474;10.944;2023-02-28T03:25:08;2.08;;;1.90;;
34098;SDS011;20374;49.474;10.944;2023-02-28T03:28:00;2.75;;;2.42;;
34098;SDS011;20374;49.474;10.944;2023-02-28T03:30:36;2.08;;;1.88;;
34098;SDS011;20374;49.474;10.944;2023-02-28T03:33:16;1.70;;;1.60;;
34098;SDS011;20374;49.474;10.944;2023-02-28T03:35:48;1.70;;;1.60;;
34098;SDS011;20374;49.474;10.944;2023-02-28T03:38:20;2.20;;;2.00;;
34098;SDS011;20374;49.474;10.944;2023-02-28T03:40:55;1.80;;;1.70;;
34098;SDS011;20374;49.474;10.944;2023-02-28T03:43:54;2.25;;;2.05;;
34098;SDS011;20374;49.474;10.944;2023-02-28T03:46:24;1.60;;;1.50;;
34098;SDS011;20374;49.474;10.944;2023-02-28T03:49:11;1.58;;;1.48;;
34098;SDS011;20374;49.474;10.944;2023-02-28T03:51:52;1.50;;;1.38;;
34098;SDS011;20374;49.474;10.944;2023-02-28T03:54:23;2.17;;;1.98;;
34098;SDS011;20374;49.474;10.944;2023-02-28T04:00:03;2.20;;;2.00;;
34098;SDS011;20374;49.474;10.944;2023-02-28T04:02:49;1.70;;;1.60;;
34098;SDS011;20374;49.474;10.944;2023-02-28T04:05:18;3.17;;;2.00;;
34098;SDS011;20374;49.474;10.944;2023-02-28T04:07:44;2.10;;;1.90;;
34098;SDS011;20374;49.474;10.944;2023-02-28T04:10:11;2.27;;;2.07;;
34098;SDS011;20374;49.474;10.944;2023-02-28T04:12:38;2.20;;;2.00;;
34098;SDS011;20374;49.474;10.944;2023-02-28T04:15:04;1.88;;;1.70;;
34098;SDS011;20374;49.474;10.944;2023-02-28T04:17:30;1.88;;;1.75;;
34098;SDS011;20374;49.474;10.944;2023-02-28T04:19:56;2.10;;;1.90;;
34098;SDS011;20374;49.474;10.944;2023-02-28T04:22:22;2.38;;;2.17;;
34098;SDS011;20374;49.474;10.944;2023-02-28T04:24:52;2.33;;;2.13;;
34098;SDS011;20374;49.474;10.944;2023-02-28T04:27:20;1.70;;;1.60;;
34098;SDS011;20374;49.474;10.944;2023-02-28T04:29:46;2.50;;;2.30;;
34098;SDS011;20374;49.474;10.944;2023-02-28T04:32:12;2.28;;;2.08;;
34098;SDS011;20374;49.474;10.944;2023-02-28T04:34:38;1.77;;;1.67;;
34098;SDS011;20374;49.474;10.944;2023-02-28T04:37:04;2.35;;;2.15;;
34098;SDS011;20374;49.474;10.944;2023-02-28T04:39:34;2.27;;;2.07;;
34098;SDS011;20374;49.474;10.944;2023-02-28T04:42:01;2.30;;;1.98;;
34098;SDS011;20374;49.474;10.944;2023-02-28T04:44:27;2.72;;;2.35;;
34098;SDS011;20374;49.474;10.944;2023-02-28T04:46:53;2.97;;;2.75;;
34098;SDS011;20374;49.474;10.944;2023-02-28T04:49:19;1.70;;;1.60;;
34098;SDS011;20374;49.474;10.944;2023-02-28T04:51:44;2.53;;;2.33;;
34098;SDS011;20374;49.474;10.944;2023-02-28T04:54:10;2.08;;;1.90;;
34098;SDS011;20374;49.474;10.944;2023-02-28T04:56:38;2.40;;;2.20;;
34098;SDS011;20374;49.474;10.944;2023-02-28T04:59:04;2.63;;;2.42;;
34098;SDS011;20374;49.474;10.944;2023-02-28T05:01:31;1.83;;;1.65;;
34098;SDS011;20374;49.474;10.944;2023-02-28T05:03:59;1.92;;;1.77;;
34098;SDS011;20374;49.474;10.944;2023-02-28T05:06:27;2.73;;;2.50;;
34098;SDS011;20374;49.474;10.944;2023-02-28T05:08:55;2.42;;;2.22;;
34098;SDS011;20374;49.474;10.944;2023-02-28T05:11:23;2.15;;;1.90;;
34098;SDS011;20374;49.474;10.944;2023-02-28T05:13:51;1.77;;;1.67;;
34098;SDS011;20374;49.474;10.944;2023-02-28T05:16:18;1.88;;;1.77;;
34098;SDS011;20374;49.474;10.944;2023-02-28T05:18:45;2.20;;;2.00;;
34098;SDS011;20374;49.474;10.944;2023-02-28T05:21:22;1.67;;;1.58;;
34098;SDS011;20374;49.474;10.944;2023-02-28T05:23:51;3.35;;;2.45;;
34098;SDS011;20374;49.474;10.944;2023-02-28T05:26:18;1.50;;;1.38;;
34098;SDS011;20374;49.474;10.944;2023-02-28T05:28:44;2.17;;;1.98;;
34098;SDS011;20374;49.474;10.944;2023-02-28T05:31:10;1.83;;;1.73;;
34098;SDS011;20374;49.474;10.944;2023-02-28T05:33:37;1.90;;;1.80;;
34098;SDS011;20374;49.474;10.944;2023-02-28T05:36:03;3.05;;;2.80;;
34098;SDS011;20374;49.474;10.944;2023-02-28T05:38:29;3.63;;;2.97;;
34098;SDS011;20374;49.474;10.944;2023-02-28T05:40:55;2.05;;;1.85;;
34098;SDS011;20374;49.474;10.944;2023-02-28T05:43:21;2.75;;;2.55;;
34098;SDS011;20374;49.474;10.944;2023-02-28T05:45:47;2.78;;;2.58;;
34098;SDS011;20374;49.474;10.944;2023-02-28T05:48:13;3.23;;;2.93;;
34098;SDS011;20374;49.474;10.944;2023-02-28T05:50:39;2.25;;;2.05;;
34098;SDS011;20374;49.474;10.944;2023-02-28T05:53:06;2.20;;;2.03;;
34098;SDS011;20374;49.474;10.944;2023-02-28T05:55:32;2.47;;;2.28;;
34098;SDS011;20374;49.474;10.944;2023-02-28T05:57:57;1.67;;;1.57;;
34098;SDS011;20374;49.474;10.944;2023-02-28T06:00:23;3.35;;;1.77;;
34098;SDS011;20374;49.474;10.944;2023-02-28T06:02:49;2.22;;;2.03;;
34098;SDS011;20374;49.474;10.944;2023-02-28T06:05:17;2.40;;;2.20;;
34098;SDS011;20374;49.474;10.944;2023-02-28T06:07:43;2.30;;;2.10;;
34098;SDS011;20374;49.474;10.944;2023-02-28T06:10:10;1.70;;;1.60;;
34098;SDS011;20374;49.474;10.944;2023-02-28T06:12:36;1.83;;;1.73;;
34098;SDS011;20374;49.474;10.944;2023-02-28T06:15:03;2.60;;;2.40;;
34098;SDS011;20374;49.474;10.944;2023-02-28T06:17:29;2.65;;;2.45;;
34098;SDS011;20374;49.474;10.944;2023-02-28T06:19:55;2.28;;;2.00;;
34098;SDS011;20374;49.474;10.944;2023-02-28T06:22:21;1.85;;;1.65;;
34098;SDS011;20374;49.474;10.944;2023-02-28T06:24:47;3.28;;;2.55;;
34098;SDS011;20374;49.474;10.944;2023-02-28T06:27:13;3.35;;;2.08;;
34098;SDS011;20374;49.474;10.944;2023-02-28T06:29:39;1.97;;;1.83;;
34098;SDS011;20374;49.474;10.944;2023-02-28T06:32:05;1.50;;;1.30;;
34098;SDS011;20374;49.474;10.944;2023-02-28T06:34:31;2.40;;;2.20;;
34098;SDS011;20374;49.474;10.944;2023-02-28T06:37:00;3.10;;;2.88;;
34098;SDS011;20374;49.474;10.944;2023-02-28T06:39:29;2.33;;;1.93;;
34098;SDS011;20374;49.474;10.944;2023-02-28T06:41:56;2.28;;;2.08;;
34098;SDS011;20374;49.474;10.944;2023-02-28T06:44:22;2.17;;;1.98;;
34098;SDS011;20374;49.474;10.944;2023-02-28T06:46:49;2.15;;;1.73;;
34098;SDS011;20374;49.474;10.944;2023-02-28T06:49:15;1.75;;;1.58;;
34098;SDS011;20374;49.474;10.944;2023-02-28T06:51:42;2.03;;;1.83;;
34098;SDS011;20374;49.474;10.944;2023-02-28T06:54:12;6.43;;;2.88;;
34098;SDS011;20374;49.474;10.944;2023-02-28T06:56:38;2.67;;;2.47;;
34098;SDS011;20374;49.474;10.944;2023-02-28T06:59:04;2.55;;;2.35;;
34098;SDS011;20374;49.474;10.944;2023-02-28T07:01:30;2.03;;;1.87;;
34098;SDS011;20374;49.474;10.944;2023-02-28T07:03:59;2.55;;;2.35;;
34098;SDS011;20374;49.474;10.944;2023-02-28T07:06:26;3.53;;;3.22;;
34098;SDS011;20374;49.474;10.944;2023-02-28T07:08:53;3.20;;;3.00;;
34098;SDS011;20374;49.474;10.944;2023-02-28T07:11:20;3.53;;;3.22;;
34098;SDS011;20374;49.474;10.944;2023-02-28T07:13:48;3.03;;;2.50;;
34098;SDS011;20374;49.474;10.944;2023-02-28T07:16:14;3.25;;;3.05;;
34098;SDS011;20374;49.474;10.944;2023-02-28T07:18:40;3.05;;;2.85;;
34098;SDS011;20374;49.474;10.944;2023-02-28T07:21:07;3.38;;;3.17;;
34098;SDS011;20374;49.474;10.944;2023-02-28T07:23:35;2.13;;;1.93;;
34098;SDS011;20374;49.474;10.944;2023-02-28T07:26:03;3.38;;;3.05;;
34098;SDS011;20374;49.474;10.944;2023-02-28T07:28:30;4.57;;;2.63;;
34098;SDS011;20374;49.474;10.944;2023-02-28T07:30:56;3.47;;;3.28;;
34098;SDS011;20374;49.474;10.944;2023-02-28T07:33:22;3.27;;;3.07;;
34098;SDS011;20374;49.474;10.944;2023-02-28T07:35:49;2.58;;;2.38;;
34098;SDS011;20374;49.474;10.944;2023-02-28T07:38:15;3.63;;;3.42;;
34098;SDS011;20374;49.474;10.944;2023-02-28T07:40:41;3.20;;;2.87;;
34098;SDS011;20374;49.474;10.944;2023-02-28T07:43:06;3.70;;;3.40;;
34098;SDS011;20374;49.474;10.944;2023-02-28T07:45:32;3.58;;;3.30;;
34098;SDS011;20374;49.474;10.944;2023-02-28T07:48:01;4.53;;;3.38;;
34098;SDS011;20374;49.474;10.944;2023-02-28T07:50:27;3.97;;;3.67;;
34098;SDS011;20374;49.474;10.944;2023-02-28T07:52:56;3.55;;;3.33;;
34098;SDS011;20374;49.474;10.944;2023-02-28T07:55:23;3.15;;;2.95;;
34098;SDS011;20374;49.474;10.944;2023-02-28T07:57:49;3.50;;;3.22;;
34098;SDS011;20374;49.474;10.944;2023-02-28T08:00:15;3.90;;;3.40;;
34098;SDS011;20374;49.474;10.944;2023-02-28T08:02:41;4.07;;;3.78;;
34098;SDS011;20374;49.474;10.944;2023-02-28T08:05:07;3.90;;;3.65;;
34098;SDS011;20374;49.474;10.944;2023-02-28T08:07:34;4.38;;;4.07;;
34098;SDS011;20374;49.474;10.944;2023-02-28T08:10:00;5.30;;;4.80;;
34098;SDS011;20374;49.474;10.944;2023-02-28T08:12:25;3.80;;;3.60;;
34098;SDS011;20374;49.474;10.944;2023-02-28T08:14:51;4.55;;;4.25;;
34098;SDS011;20374;49.474;10.944;2023-02-28T08:17:17;4.10;;;3.80;;
34098;SDS011;20374;49.474;10.944;2023-02-28T08:19:46;4.55;;;3.33;;
34098;SDS011;20374;49.474;10.944;2023-02-28T08:22:12;4.07;;;3.78;;
34098;SDS011;20374;49.474;10.944;2023-02-28T08:24:40;3.40;;;3.20;;
34098;SDS011;20374;49.474;10.944;2023-02-28T08:27:07;4.17;;;3.87;;
34098;SDS011;20374;49.474;10.944;2023-02-28T08:29:33;19.48;;;18.65;;
34098;SDS011;20374;49.474;10.944;2023-02-28T08:32:01;7.50;;;7.10;;
34098;SDS011;20374;49.474;10.944;2023-02-28T08:34:27;3.25;;;3.00;;
34098;SDS011;20374;49.474;10.944;2023-02-28T08:36:53;5.78;;;5.38;;
34098;SDS011;20374;49.474;10.944;2023-02-28T08:39:19;3.60;;;3.30;;
34098;SDS011;20374;49.474;10.944;2023-02-28T08:41:45;4.10;;;3.70;;
34098;SDS011;20374;49.474;10.944;2023-02-28T08:44:11;2.72;;;2.50;;
34098;SDS011;20374;49.474;10.944;2023-02-28T08:46:37;4.67;;;4.37;;
34098;SDS011;20374;49.474;10.944;2023-02-28T08:49:03;3.45;;;3.25;;
34098;SDS011;20374;49.474;10.944;2023-02-28T08:51:29;2.63;;;2.42;;
34098;SDS011;20374;49.474;10.944;2023-02-28T08:53:57;4.10;;;3.37;;
34098;SDS011;20374;49.474;10.944;2023-02-28T08:56:25;4.45;;;2.95;;
34098;SDS011;20374;49.474;10.944;2023-02-28T08:58:53;3.55;;;3.35;;
34098;SDS011;20374;49.474;10.944;2023-02-28T09:01:21;3.53;;;3.33;;
34098;SDS011;20374;49.474;10.944;2023-02-28T09:03:49;2.92;;;2.60;;
34098;SDS011;20374;49.474;10.944;2023-02-28T09:06:17;2.83;;;2.63;;
34098;SDS011;20374;49.474;10.944;2023-02-28T09:08:44;4.50;;;3.13;;
34098;SDS011;20374;49.474;10.944;2023-02-28T09:11:11;3.47;;;3.25;;
34098;SDS011;20374;49.474;10.944;2023-02-28T09:13:37;2.72;;;2.53;;
34098;SDS011;20374;49.474;10.944;2023-02-28T09:16:04;3.27;;;3.07;;
34098;SDS011;20374;49.474;10.944;2023-02-28T09:18:33;3.08;;;2.88;;
34098;SDS011;20374;49.474;10.944;2023-02-28T09:21:06;3.72;;;3.45;;
34098;SDS011;20374;49.474;10.944;2023-02-28T09:23:33;3.67;;;3.40;;
34098;SDS011;20374;49.474;10.944;2023-02-28T09:26:00;3.65;;;3.25;;
34098;SDS011;20374;49.474;10.944;2023-02-28T09:28:26;3.17;;;2.97;;
34098;SDS011;20374;49.474;10.944;2023-02-28T09:30:53;3.20;;;3.00;;
34098;SDS011;20374;49.474;10.944;2023-02-28T09:33:20;2.75;;;2.55;;
34098;SDS011;20374;49.474;10.944;2023-02-28T09:35:47;3.60;;;3.30;;
34098;SDS011;20374;49.474;10.944;2023-02-28T09:38:14;3.15;;;2.85;;
34098;SDS011;20374;49.474;10.944;2023-02-28T09:40:48;2.70;;;2.50;;
34098;SDS011;20374;49.474;10.944;2023-02-28T09:43:17;3.78;;;3.30;;
34098;SDS011;20374;49.474;10.944;2023-02-28T09:45:48;3.17;;;2.42;;
34098;SDS011;20374;49.474;10.944;2023-02-28T09:48:25;3.10;;;2.90;;
34098;SDS011;20374;49.474;10.944;2023-02-28T09:51:44;3.10;;;2.90;;
34098;SDS011;20374;49.474;10.944;2023-02-28T09:54:00;3.00;;;2.33;;
34098;SDS011;20374;49.474;10.944;2023-02-28T10:09:51;3.72;;;3.10;;
34098;SDS011;20374;49.474;10.944;2023-02-28T10:12:20;3.58;;;3.38;;
34098;SDS011;20374;49.474;10.944;2023-02-28T10:14:47;3.60;;;3.30;;
34098;SDS011;20374;49.474;10.944;2023-02-28T10:17:18;3.00;;;2.70;;
34098;SDS011;20374;49.474;10.944;2023-02-28T10:20:00;5.90;;;3.47;;
34098;SDS011;20374;49.474;10.944;2023-02-28T10:25:19;2.88;;;2.67;;
34098;SDS011;20374;49.474;10.944;2023-02-28T10:27:47;2.92;;;2.67;;
34098;SDS011;20374;49.474;10.944;2023-02-28T10:30:14;4.55;;;3.25;;
34098;SDS011;20374;49.474;10.944;2023-02-28T10:32:41;4.03;;;3.73;;
34098;SDS011;20374;49.474;10.944;2023-02-28T10:37:46;2.90;;;2.70;;
34098;SDS011;20374;49.474;10.944;2023-02-28T10:42:42;3.70;;;3.38;;
34098;SDS011;20374;49.474;10.944;2023-02-28T10:45:32;2.80;;;2.60;;
34098;SDS011;20374;49.474;10.944;2023-02-28T11:01:46;3.10;;;2.80;;
34098;SDS011;20374;49.474;10.944;2023-02-28T11:09:33;3.83;;;2.70;;
34098;SDS011;20374;49.474;10.944;2023-02-28T11:12:01;3.90;;;3.60;;
34098;SDS011;20374;49.474;10.944;2023-02-28T11:14:32;4.85;;;4.40;;
34098;SDS011;20374;49.474;10.944;2023-02-28T11:17:13;4.68;;;4.13;;
34098;SDS011;20374;49.474;10.944;2023-02-28T11:19:45;4.90;;;4.60;;
34098;SDS011;20374;49.474;10.944;2023-02-28T11:22:35;4.03;;;3.70;;
34098;SDS011;20374;49.474;10.944;2023-02-28T11:25:21;4.57;;;4.07;;
34098;SDS011;20374;49.474;10.944;2023-02-28T11:27:55;4.25;;;3.95;;
34098;SDS011;20374;49.474;10.944;2023-02-28T11:30:28;5.60;;;5.20;;
34098;SDS011;20374;49.474;10.944;2023-02-28T11:36:14;4.70;;;4.40;;
34098;SDS011;20374;49.474;10.944;2023-02-28T11:38:43;4.40;;;4.10;;
34098;SDS011;20374;49.474;10.944;2023-02-28T11:46:47;5.25;;;4.85;;
34098;SDS011;20374;49.474;10.944;2023-02-28T11:52:33;4.47;;;4.17;;
34098;SDS011;20374;49.474;10.944;2023-02-28T12:00:14;4.55;;;4.15;;
34098;SDS011;20374;49.474;10.944;2023-02-28T12:05:27;4.40;;;4.10;;
34098;SDS011;20374;49.474;10.944;2023-02-28T12:13:21;4.32;;;4.03;;
34098;SDS011;20374;49.474;10.944;2023-02-28T12:21:11;4.43;;;4.05;;
34098;SDS011;20374;49.474;10.944;2023-02-28T12:29:04;5.40;;;4.50;;
34098;SDS011;20374;49.474;10.944;2023-02-28T12:34:52;5.32;;;4.88;;
34098;SDS011;20374;49.474;10.944;2023-02-28T12:40:03;5.20;;;4.80;;
34098;SDS011;20374;49.474;10.944;2023-02-28T12:43:18;5.00;;;4.60;;
34098;SDS011;20374;49.474;10.944;2023-02-28T12:48:27;4.70;;;4.30;;
34098;SDS011;20374;49.474;10.944;2023-02-28T12:51:01;5.30;;;4.80;;
34098;SDS011;20374;49.474;10.944;2023-02-28T12:58:46;5.85;;;5.35;;
34098;SDS011;20374;49.474;10.944;2023-02-28T13:10:17;4.70;;;4.40;;
34098;SDS011;20374;49.474;10.944;2023-02-28T13:12:48;5.32;;;4.82;;
34098;SDS011;20374;49.474;10.944;2023-02-28T13:15:17;5.43;;;5.03;;
34098;SDS011;20374;49.474;10.944;2023-02-28T13:17:56;6.10;;;5.70;;
34098;SDS011;20374;49.474;10.944;2023-02-28T13:20:25;6.25;;;5.63;;
34098;SDS011;20374;49.474;10.944;2023-02-28T13:22:57;6.83;;;6.20;;
34098;SDS011;20374;49.474;10.944;2023-02-28T13:28:11;6.25;;;5.75;;
34098;SDS011;20374;49.474;10.944;2023-02-28T13:33:26;5.80;;;5.30;;
34098;SDS011;20374;49.474;10.944;2023-02-28T13:36:09;5.20;;;4.80;;
34098;SDS011;20374;49.474;10.944;2023-02-28T13:38:52;5.78;;;5.28;;
34098;SDS011;20374;49.474;10.944;2023-02-28T13:49:19;6.53;;;5.93;;
34098;SDS011;20374;49.474;10.944;2023-02-28T13:57:50;6.57;;;5.60;;
34098;SDS011;20374;49.474;10.944;2023-02-28T14:08:59;5.85;;;5.35;;
34098;SDS011;20374;49.474;10.944;2023-02-28T14:14:03;6.20;;;5.70;;
34098;SDS011;20374;49.474;10.944;2023-02-28T14:16:40;5.93;;;5.28;;
34098;SDS011;20374;49.474;10.944;2023-02-28T14:19:15;6.03;;;5.63;;
34098;SDS011;20374;49.474;10.944;2023-02-28T14:32:53;6.13;;;5.63;;
34098;SDS011;20374;49.474;10.944;2023-02-28T14:35:35;5.55;;;5.13;;
34098;SDS011;20374;49.474;10.944;2023-02-28T14:38:16;6.00;;;5.60;;
34098;SDS011;20374;49.474;10.944;2023-02-28T14:40:47;5.97;;;5.47;;
34098;SDS011;20374;49.474;10.944;2023-02-28T14:43:24;6.78;;;6.18;;
34098;SDS011;20374;49.474;10.944;2023-02-28T14:45:52;6.28;;;5.68;;
34098;SDS011;20374;49.474;10.944;2023-02-28T14:48:20;7.03;;;5.93;;
34098;SDS011;20374;49.474;10.944;2023-02-28T14:50:57;5.43;;;4.97;;
34098;SDS011;20374;49.474;10.944;2023-02-28T14:53:29;4.80;;;4.50;;
34098;SDS011;20374;49.474;10.944;2023-02-28T14:56:00;5.13;;;4.68;;
34098;SDS011;20374;49.474;10.944;2023-02-28T15:01:00;6.10;;;4.55;;
34098;SDS011;20374;49.474;10.944;2023-02-28T15:03:33;4.57;;;3.80;;
34098;SDS011;20374;49.474;10.944;2023-02-28T15:06:00;5.43;;;4.65;;
34098;SDS011;20374;49.474;10.944;2023-02-28T15:08:31;4.97;;;4.57;;
34098;SDS011;20374;49.474;10.944;2023-02-28T15:11:13;5.05;;;4.65;;
34098;SDS011;20374;49.474;10.944;2023-02-28T15:16:22;5.93;;;4.23;;
34098;SDS011;20374;49.474;10.944;2023-02-28T15:18:54;4.45;;;4.15;;
34098;SDS011;20374;49.474;10.944;2023-02-28T15:21:35;5.18;;;4.78;;
34098;SDS011;20374;49.474;10.944;2023-02-28T15:24:06;5.35;;;4.82;;
34098;SDS011;20374;49.474;10.944;2023-02-28T15:26:53;7.75;;;4.20;;
34098;SDS011;20374;49.474;10.944;2023-02-28T15:29:23;4.10;;;3.80;;
34098;SDS011;20374;49.474;10.944;2023-02-28T15:31:55;5.07;;;4.20;;
34098;SDS011;20374;49.474;10.944;2023-02-28T15:37:25;4.45;;;4.15;;
34098;SDS011;20374;49.474;10.944;2023-02-28T15:39:52;3.92;;;3.63;;
34098;SDS011;20374;49.474;10.944;2023-02-28T15:42:20;4.63;;;4.20;;
34098;SDS011;20374;49.474;10.944;2023-02-28T15:44:48;4.70;;;4.30;;
34098;SDS011;20374;49.474;10.944;2023-02-28T15:49:56;4.57;;;4.28;;
34098;SDS011;20374;49.474;10.944;2023-02-28T15:52:40;3.88;;;3.58;;
34098;SDS011;20374;49.474;10.944;2023-02-28T15:55:17;4.73;;;3.77;;
34098;SDS011;20374;49.474;10.944;2023-02-28T15:57:50;4.38;;;4.03;;
34098;SDS011;20374;49.474;10.944;2023-02-28T16:00:19;3.97;;;3.67;;
34098;SDS011;20374;49.474;10.944;2023-02-28T16:02:47;4.22;;;3.92;;
34098;SDS011;20374;49.474;10.944;2023-02-28T16:07:45;3.33;;;3.03;;
34098;SDS011;20374;49.474;10.944;2023-02-28T16:10:14;4.22;;;3.90;;
34098;SDS011;20374;49.474;10.944;2023-02-28T16:12:40;3.70;;;3.42;;
34098;SDS011;20374;49.474;10.944;2023-02-28T16:15:07;2.90;;;2.70;;
34098;SDS011;20374;49.474;10.944;2023-02-28T16:17:45;3.90;;;3.50;;
34098;SDS011;20374;49.474;10.944;2023-02-28T16:20:13;4.90;;;3.00;;
34098;SDS011;20374;49.474;10.944;2023-02-28T16:22:40;2.83;;;2.63;;
34098;SDS011;20374;49.474;10.944;2023-02-28T16:25:10;3.72;;;3.42;;
34098;SDS011;20374;49.474;10.944;2023-02-28T16:27:41;2.28;;;2.08;;
34098;SDS011;20374;49.474;10.944;2023-02-28T16:30:19;4.03;;;3.63;;
34098;SDS011;20374;49.474;10.944;2023-02-28T16:32:47;3.25;;;2.85;;
34098;SDS011;20374;49.474;10.944;2023-02-28T16:35:14;3.25;;;2.80;;
34098;SDS011;20374;49.474;10.944;2023-02-28T16:37:41;3.50;;;3.30;;
34098;SDS011;20374;49.474;10.944;2023-02-28T16:40:09;3.60;;;3.22;;
34098;SDS011;20374;49.474;10.944;2023-02-28T16:42:43;5.40;;;4.33;;
34098;SDS011;20374;49.474;10.944;2023-02-28T16:45:23;3.90;;;3.22;;
34098;SDS011;20374;49.474;10.944;2023-02-28T16:47:51;3.45;;;3.25;;
34098;SDS011;20374;49.474;10.944;2023-02-28T16:50:22;4.35;;;3.83;;
34098;SDS011;20374;49.474;10.944;2023-02-28T16:52:49;4.47;;;4.07;;
34098;SDS011;20374;49.474;10.944;2023-02-28T16:55:17;4.40;;;2.87;;
34098;SDS011;20374;49.474;10.944;2023-02-28T16:57:44;4.72;;;3.28;;
34098;SDS011;20374;49.474;10.944;2023-02-28T17:00:15;3.53;;;3.30;;
34098;SDS011;20374;49.474;10.944;2023-02-28T17:02:41;4.20;;;3.90;;
34098;SDS011;20374;49.474;10.944;2023-02-28T17:05:08;4.97;;;4.47;;
34098;SDS011;20374;49.474;10.944;2023-02-28T17:07:36;5.33;;;3.63;;
34098;SDS011;20374;49.474;10.944;2023-02-28T17:10:04;3.75;;;3.45;;
34098;SDS011;20374;49.474;10.944;2023-02-28T17:12:46;2.83;;;2.60;;
34098;SDS011;20374;49.474;10.944;2023-02-28T17:15:13;3.88;;;3.38;;
34098;SDS011;20374;49.474;10.944;2023-02-28T17:17:40;3.23;;;3.03;;
34098;SDS011;20374;49.474;10.944;2023-02-28T17:20:10;4.28;;;3.72;;
34098;SDS011;20374;49.474;10.944;2023-02-28T17:22:38;3.67;;;3.42;;
34098;SDS011;20374;49.474;10.944;2023-02-28T17:25:04;2.55;;;2.35;;
34098;SDS011;20374;49.474;10.944;2023-02-28T17:27:30;4.13;;;3.83;;
34098;SDS011;20374;49.474;10.944;2023-02-28T17:29:57;3.17;;;2.93;;
34098;SDS011;20374;49.474;10.944;2023-02-28T17:32:26;3.30;;;3.10;;
34098;SDS011;20374;49.474;10.944;2023-02-28T17:34:52;3.90;;;3.60;;
34098;SDS011;20374;49.474;10.944;2023-02-28T17:37:18;5.10;;;3.67;;
34098;SDS011;20374;49.474;10.944;2023-02-28T17:39:44;6.55;;;2.85;;
34098;SDS011;20374;49.474;10.944;2023-02-28T17:42:10;3.83;;;3.53;;
34098;SDS011;20374;49.474;10.944;2023-02-28T17:44:37;3.85;;;2.97;;
34098;SDS011;20374;49.474;10.944;2023-02-28T17:47:03;4.07;;;3.60;;
34098;SDS011;20374;49.474;10.944;2023-02-28T17:49:29;3.50;;;3.20;;
34098;SDS011;20374;49.474;10.944;2023-02-28T17:51:55;2.95;;;2.72;;
34098;SDS011;20374;49.474;10.944;2023-02-28T17:54:21;3.83;;;3.45;;
34098;SDS011;20374;49.474;10.944;2023-02-28T17:56:47;3.15;;;2.85;;
34098;SDS011;20374;49.474;10.944;2023-02-28T17:59:12;3.63;;;3.33;;
34098;SDS011;20374;49.474;10.944;2023-02-28T18:01:39;9.27;;;3.22;;